Time;durP1;ratioP1;P1;durP2;ratioP2;P2;SDS_P1;SDS_P2;PMS_P1;PMS_P2;Temp;Humidity;BMP_temperature;BMP_pressure;BME280_temperature;BME280_humidity;BME280_pressure;Samples;Min_cycle;Max_cycle;Signal;HPM_P1;HPM_P2
2023/07/22 00:00:26;;;;;;;;;;;;;;;;;;5069241;28;4883;-59
2023/07/22 00:02:51;;;;;;;;;;;;;;;;;;5069332;28;4949;-59
2023/07/22 00:05:21;;;;;;;;;;;;;;;;;;5069816;28;1214;-59
2023/07/22 00:07:47;;;;;;;;;;;;;;;;;;5069246;28;5698;-58
2023/07/22 00:10:12;;;;;;;;;;;;;;;;;;5069224;28;4421;-59
2023/07/22 00:12:38;;;;;;;;;;;;;;;;;;5069460;28;5314;-59
2023/07/22 00:15:03;;;;;;;;;;;;;;;;;;5069476;28;4946;-58
2023/07/22 00:17:29;;;;;;;;;;;;;;;;;;5069725;28;1313;-58
2023/07/22 00:19:54;;;;;;;;;;;;;;;;;;5065588;28;5062;-59
2023/07/22 00:22:21;;;;;;;;;;;;;;;;;;5069088;28;5792;-59
2023/07/22 00:24:46;;;;;;;;;;;;;;;;;;5067134;28;4871;-58
2023/07/22 00:27:12;;;;;;;;;;;;;;;;;;5067110;28;4859;-59
2023/07/22 00:29:37;;;;;;;;;;;;;;;;;;5069056;28;1140;-59
2023/07/22 00:32:05;;;;;;;;;;;;;;;;;;5068541;28;5272;-59
2023/07/22 00:34:30;;;;;;;;;;;;;;;;;;5068500;28;4571;-59
2023/07/22 00:36:56;;;;;;;;;;;;;;;;;;5068624;28;4663;-58
2023/07/22 00:39:21;;;;;;;;;;;;;;;;;;5069093;28;4962;-58
2023/07/22 00:41:46;;;;;;;;;;;;;;;;;;5069103;28;1914;-58
2023/07/22 00:44:12;;;;;;;;;;;;;;;;;;5068799;28;4662;-58
2023/07/22 00:46:37;;;;;;;;;;;;;;;;;;5067478;28;5326;-58
2023/07/22 00:49:04;;;;;;;;;;;;;;;;;;5068626;28;4410;-59
2023/07/22 00:51:29;;;;;;;;;;;;;;;;;;5066538;28;5277;-59
2023/07/22 00:53:55;;;;;;;;;;;;;;;;;;5068088;28;4840;-58
2023/07/22 00:56:20;;;;;;;;;;;;;;;;;;5068726;28;1175;-59
2023/07/22 00:58:45;;;;;;;;;;;;;;;;;;5068294;28;4477;-59
2023/07/22 01:01:10;;;;;;;;;;;;;;;;;;5068278;28;4451;-58
2023/07/22 01:03:36;;;;;;;;;;;;;;;;;;5068394;28;4856;-58
2023/07/22 01:06:01;;;;;;;;;;;;;;;;;;5066744;28;5504;-59
2023/07/22 01:08:26;;;;;;;;;;;;;;;;;;5069210;28;1782;-58
2023/07/22 01:10:51;;;;;;;;;;;;;;;;;;5066421;28;4586;-58
2023/07/22 01:13:17;;;;;;;;;;;;;;;;;;5068317;28;5230;-58
2023/07/22 01:15:42;;;;;;;;;;;;;;;;;;5068038;28;4945;-59
2023/07/22 01:18:07;;;;;;;;;;;;;;;;;;5062247;28;4996;-58
2023/07/22 01:20:33;;;;;;;;;;;;;;;;;;5064428;28;1906;-59
2023/07/22 01:22:58;;;;;;;;;;;;;;;;;;5068157;28;4836;-59
2023/07/22 01:25:23;;;;;;;;;;;;;;;;;;5065009;28;4980;-59
2023/07/22 01:27:49;;;;;;;;;;;;;;;;;;5067079;28;4467;-59
2023/07/22 01:30:16;;;;;;;;;;;;;;;;;;5067700;28;5217;-58
2023/07/22 01:32:41;;;;;;;;;;;;;;;;;;5068086;28;4770;-59
2023/07/22 01:35:09;;;;;;;;;;;;;;;;;;5062961;28;4991;-59
2023/07/22 01:37:35;;;;;;;;;;;;;;;;;;5068164;28;5769;-58
2023/07/22 01:40:00;;;;;;;;;;;;;;;;;;5067587;28;5065;-58
2023/07/22 01:42:25;;;;;;;;;;;;;;;;;;5068019;28;5007;-59
2023/07/22 01:44:51;;;;;;;;;;;;;;;;;;5067832;28;5072;-58
2023/07/22 01:47:16;;;;;;;;;;;;;;;;;;5068868;28;2515;-58
2023/07/22 01:49:42;;;;;;;;;;;;;;;;;;5066829;28;4920;-59
2023/07/22 01:52:07;;;;;;;;;;;;;;;;;;5066629;28;5951;-59
2023/07/22 01:54:32;;;;;;;;;;;;;;;;;;5067718;28;4436;-58
2023/07/22 01:56:58;;;;;;;;;;;;;;;;;;5068166;28;4863;-59
2023/07/22 01:59:23;;;;;;;;;;;;;;;;;;5068879;28;1317;-59
2023/07/22 02:01:48;;;;;;;;;;;;;;;;;;5068129;28;5321;-58
2023/07/22 02:04:13;;;;;;;;;;;;;;;;;;5068824;28;4441;-58
2023/07/22 02:06:39;;;;;;;;;;;;;;;;;;5072137;28;5206;-58
2023/07/22 02:09:08;;;;;;;;;;;;;;;;;;5071299;28;5069;-58
2023/07/22 02:11:33;;;;;;;;;;;;;;;;;;5071936;28;1187;-58
2023/07/22 02:13:58;;;;;;;;;;;;;;;;;;5071693;28;5222;-59
2023/07/22 02:16:24;;;;;;;;;;;;;;;;;;5071805;28;5131;-58
2023/07/22 02:18:49;;;;;;;;;;;;;;;;;;5071452;28;5042;-58
2023/07/22 02:21:14;;;;;;;;;;;;;;;;;;5070666;28;5064;-58
2023/07/22 02:23:39;;;;;;;;;;;;;;;;;;5072142;28;1268;-58
2023/07/22 02:26:05;;;;;;;;;;;;;;;;;;5069188;28;4461;-57
2023/07/22 02:28:30;;;;;;;;;;;;;;;;;;5071289;28;5003;-58
2023/07/22 02:30:55;;;;;;;;;;;;;;;;;;5071135;28;4410;-57
2023/07/22 02:33:24;;;;;;;;;;;;;;;;;;5070100;28;4952;-58
2023/07/22 02:35:49;;;;;;;;;;;;;;;;;;5071537;28;1131;-57
2023/07/22 02:38:14;;;;;;;;;;;;;;;;;;5070880;28;5096;-58
2023/07/22 02:40:40;;;;;;;;;;;;;;;;;;5070936;28;4929;-58
2023/07/22 02:43:06;;;;;;;;;;;;;;;;;;5071903;28;5049;-58
2023/07/22 02:45:32;;;;;;;;;;;;;;;;;;5063571;28;4628;-58
2023/07/22 02:47:57;;;;;;;;;;;;;;;;;;5070630;28;4433;-57
2023/07/22 02:50:23;;;;;;;;;;;;;;;;;;5062471;28;1479;-58
2023/07/22 02:52:48;;;;;;;;;;;;;;;;;;5070349;28;5111;-58
2023/07/22 02:55:14;;;;;;;;;;;;;;;;;;5070478;28;5003;-58
2023/07/22 02:57:40;;;;;;;;;;;;;;;;;;5070720;28;5042;-58
2023/07/22 03:00:08;;;;;;;;;;;;;;;;;;5070949;28;5051;-58
2023/07/22 03:02:34;;;;;;;;;;;;;;;;;;5070866;28;1182;-58
2023/07/22 03:04:59;;;;;;;;;;;;;;;;;;5070834;28;4676;-58
2023/07/22 03:07:26;;;;;;;;;;;;;;;;;;5070166;28;5117;-58
2023/07/22 03:09:51;;;;;;;;;;;;;;;;;;5070600;28;4822;-58
2023/07/22 03:12:16;;;;;;;;;;;;;;;;;;5070236;28;4974;-58
2023/07/22 03:14:42;;;;;;;;;;;;;;;;;;5071138;28;1207;-58
2023/07/22 03:17:07;;;;;;;;;;;;;;;;;;5068836;28;4937;-58
2023/07/22 03:19:33;;;;;;;;;;;;;;;;;;5067825;28;4646;-58
2023/07/22 03:21:58;;;;;;;;;;;;;;;;;;5068346;28;5853;-58
2023/07/22 03:24:25;;;;;;;;;;;;;;;;;;5067669;28;5037;-58
2023/07/22 03:26:50;;;;;;;;;;;;;;;;;;5068702;28;5341;-56
2023/07/22 03:29:15;;;;;;;;;;;;;;;;;;5070040;28;1291;-58
2023/07/22 03:31:40;;;;;;;;;;;;;;;;;;5069823;28;5056;-58
2023/07/22 03:34:06;;;;;;;;;;;;;;;;;;5065264;28;4987;-58
2023/07/22 03:36:34;;;;;;;;;;;;;;;;;;5069791;28;4517;-58
2023/07/22 03:38:59;;;;;;;;;;;;;;;;;;5069952;28;4971;-58
2023/07/22 03:41:25;;;;;;;;;;;;;;;;;;5069979;28;2498;-58
2023/07/22 03:43:50;;;;;;;;;;;;;;;;;;5069940;28;5039;-58
2023/07/22 03:46:15;;;;;;;;;;;;;;;;;;5069463;28;4956;-58
2023/07/22 03:48:40;;;;;;;;;;;;;;;;;;5069970;28;5018;-57
2023/07/22 03:51:06;;;;;;;;;;;;;;;;;;5060496;28;4659;-57
2023/07/22 03:53:31;;;;;;;;;;;;;;;;;;5070615;28;1447;-57
2023/07/22 03:55:56;;;;;;;;;;;;;;;;;;5069219;28;5027;-58
2023/07/22 03:58:21;;;;;;;;;;;;;;;;;;5065342;28;4886;-57
2023/07/22 04:00:49;;;;;;;;;;;;;;;;;;5066466;28;5167;-58
2023/07/22 04:03:15;;;;;;;;;;;;;;;;;;5065501;28;5101;-58
2023/07/22 04:05:40;;;;;;;;;;;;;;;;;;5066185;28;3734;-58
2023/07/22 04:08:05;;;;;;;;;;;;;;;;;;5071865;28;5079;-58
2023/07/22 04:10:30;;;;;;;;;;;;;;;;;;5061548;28;5111;-58
2023/07/22 04:12:56;;;;;;;;;;;;;;;;;;5067964;28;4924;-58
2023/07/22 04:15:21;;;;;;;;;;;;;;;;;;5063078;28;4935;-58
2023/07/22 04:17:46;;;;;;;;;;;;;;;;;;5062819;28;3379;-58
2023/07/22 04:20:12;;;;;;;;;;;;;;;;;;5053119;28;4347;-55
2023/07/22 04:22:37;;;;;;;;;;;;;;;;;;5058432;28;4557;-56
2023/07/22 04:25:02;;;;;;;;;;;;;;;;;;5065307;28;5068;-54
2023/07/22 04:27:28;;;;;;;;;;;;;;;;;;5060280;28;4645;-55
2023/07/22 04:29:53;;;;;;;;;;;;;;;;;;5057459;28;5254;-57
2023/07/22 04:32:18;;;;;;;;;;;;;;;;;;5058027;28;4754;-55
2023/07/22 04:34:43;;;;;;;;;;;;;;;;;;5060009;28;5264;-63
2023/07/22 04:37:09;;;;;;;;;;;;;;;;;;5059020;28;5180;-58
2023/07/22 04:39:34;;;;;;;;;;;;;;;;;;5062896;28;4877;-59
2023/07/22 04:41:59;;;;;;;;;;;;;;;;;;5062313;28;4900;-58
2023/07/22 04:44:24;;;;;;;;;;;;;;;;;;5066134;28;4164;-48
2023/07/22 04:46:50;;;;;;;;;;;;;;;;;;5064262;28;4906;-47
2023/07/22 04:49:17;;;;;;;;;;;;;;;;;;5063774;28;5057;-51
2023/07/22 04:51:43;;;;;;;;;;;;;;;;;;5058633;28;5196;-48
2023/07/22 04:54:09;;;;;;;;;;;;;;;;;;5060374;28;4519;-49
2023/07/22 04:56:34;;;;;;;;;;;;;;;;;;5061922;28;3367;-48
2023/07/22 04:58:59;;;;;;;;;;;;;;;;;;5062116;28;4883;-49
2023/07/22 05:01:25;;;;;;;;;;;;;;;;;;5064045;28;5760;-49
2023/07/22 05:03:50;;;;;;;;;;;;;;;;;;5065679;28;5079;-48
2023/07/22 05:06:15;;;;;;;;;;;;;;;;;;5066521;28;4639;-48
2023/07/22 05:08:41;;;;;;;;;;;;;;;;;;5066603;28;1116;-50
2023/07/22 05:11:06;;;;;;;;;;;;;;;;;;5065830;28;4934;-48
2023/07/22 05:13:32;;;;;;;;;;;;;;;;;;5066114;28;5042;-49
2023/07/22 05:15:57;;;;;;;;;;;;;;;;;;5066119;28;5015;-54
2023/07/22 05:18:22;;;;;;;;;;;;;;;;;;5066377;28;4489;-54
2023/07/22 05:20:47;;;;;;;;;;;;;;;;;;5063762;28;1934;-51
2023/07/22 05:23:13;;;;;;;;;;;;;;;;;;5066300;28;4589;-48
2023/07/22 05:25:38;;;;;;;;;;;;;;;;;;5064074;28;4457;-49
2023/07/22 05:28:03;;;;;;;;;;;;;;;;;;5066178;28;4443;-48
2023/07/22 05:30:28;;;;;;;;;;;;;;;;;;5067503;28;4867;-48
2023/07/22 05:32:54;;;;;;;;;;;;;;;;;;5066901;28;4778;-51
2023/07/22 05:35:19;;;;;;;;;;;;;;;;;;5066538;28;1342;-49
2023/07/22 05:37:44;;;;;;;;;;;;;;;;;;5067466;28;5079;-49
2023/07/22 05:40:10;;;;;;;;;;;;;;;;;;5066251;28;5218;-51
2023/07/22 05:42:35;;;;;;;;;;;;;;;;;;5067733;28;4856;-50
2023/07/22 05:45:02;;;;;;;;;;;;;;;;;;5064796;28;4989;-48
2023/07/22 05:47:27;;;;;;;;;;;;;;;;;;5058279;28;1191;-52
2023/07/22 05:49:52;;;;;;;;;;;;;;;;;;5066711;28;4999;-51
2023/07/22 05:52:18;;;;;;;;;;;;;;;;;;5067693;28;4447;-48
2023/07/22 05:54:43;;;;;;;;;;;;;;;;;;5067264;28;5093;-50
2023/07/22 05:57:08;;;;;;;;;;;;;;;;;;5067501;28;4475;-50
2023/07/22 05:59:35;;;;;;;;;;;;;;;;;;5067588;28;1305;-48
2023/07/22 06:02:01;;;;;;;;;;;;;;;;;;5067132;28;4433;-48
2023/07/22 06:04:26;;;;;;;;;;;;;;;;;;5066173;28;4994;-49
2023/07/22 06:06:51;;;;;;;;;;;;;;;;;;5067388;28;4659;-48
2023/07/22 06:09:17;;;;;;;;;;;;;;;;;;5067185;28;5136;-52
2023/07/22 06:11:42;;;;;;;;;;;;;;;;;;5066159;28;1133;-51
2023/07/22 06:14:08;;;;;;;;;;;;;;;;;;5066913;28;5003;-51
2023/07/22 06:16:33;;;;;;;;;;;;;;;;;;5067701;28;5083;-49
2023/07/22 06:18:58;;;;;;;;;;;;;;;;;;5067062;28;5191;-48
2023/07/22 06:21:24;;;;;;;;;;;;;;;;;;5063936;28;5144;-47
2023/07/22 06:23:49;;;;;;;;;;;;;;;;;;5067355;28;1245;-49
2023/07/22 06:26:14;;;;;;;;;;;;;;;;;;5063617;28;4469;-47
2023/07/22 06:28:40;;;;;;;;;;;;;;;;;;5064702;28;5315;-49
2023/07/22 06:31:05;;;;;;;;;;;;;;;;;;5067129;28;5011;-49
2023/07/22 06:33:30;;;;;;;;;;;;;;;;;;5066893;28;4766;-47
2023/07/22 06:35:56;;;;;;;;;;;;;;;;;;5062283;28;4634;-48
2023/07/22 06:38:21;;;;;;;;;;;;;;;;;;5067462;28;1321;-48
2023/07/22 06:40:46;;;;;;;;;;;;;;;;;;5066841;28;4818;-52
2023/07/22 06:43:11;;;;;;;;;;;;;;;;;;5066988;28;5003;-49
2023/07/22 06:45:37;;;;;;;;;;;;;;;;;;5067017;28;5019;-52
2023/07/22 06:48:02;;;;;;;;;;;;;;;;;;5066606;28;4475;-48
2023/07/22 06:50:28;;;;;;;;;;;;;;;;;;5067595;28;1458;-51
2023/07/22 06:52:53;;;;;;;;;;;;;;;;;;5069824;28;4704;-51
2023/07/22 06:55:18;;;;;;;;;;;;;;;;;;5070008;28;5046;-51
2023/07/22 06:57:43;;;;;;;;;;;;;;;;;;5065569;28;4485;-51
2023/07/22 07:00:12;;;;;;;;;;;;;;;;;;5065281;28;5002;-46
2023/07/22 07:02:37;;;;;;;;;;;;;;;;;;5070551;28;1097;-48
2023/07/22 07:05:02;;;;;;;;;;;;;;;;;;5070621;28;5003;-48
2023/07/22 07:07:27;;;;;;;;;;;;;;;;;;5070066;28;4786;-47
2023/07/22 07:09:53;;;;;;;;;;;;;;;;;;5064835;28;4426;-47
2023/07/22 07:12:18;;;;;;;;;;;;;;;;;;5068864;28;4893;-51
2023/07/22 07:14:43;;;;;;;;;;;;;;;;;;5070384;28;1321;-49
2023/07/22 07:17:08;;;;;;;;;;;;;;;;;;5068179;28;4874;-47
2023/07/22 07:19:34;;;;;;;;;;;;;;;;;;5068987;28;4804;-48
2023/07/22 07:21:59;;;;;;;;;;;;;;;;;;5067193;28;5129;-48
2023/07/22 07:24:27;;;;;;;;;;;;;;;;;;5066360;28;5302;-50
2023/07/22 07:26:52;;;;;;;;;;;;;;;;;;5066936;28;4846;-50
2023/07/22 07:29:17;;;;;;;;;;;;;;;;;;5069796;28;1144;-46
2023/07/22 07:31:42;;;;;;;;;;;;;;;;;;5068969;28;4846;-48
2023/07/22 07:34:08;;;;;;;;;;;;;;;;;;5069935;28;4850;-49
2023/07/22 07:36:33;;;;;;;;;;;;;;;;;;5069755;28;5012;-47
2023/07/22 07:38:58;;;;;;;;;;;;;;;;;;5064760;28;4987;-49
2023/07/22 07:41:24;;;;;;;;;;;;;;;;;;5069840;28;1989;-50
2023/07/22 07:43:49;;;;;;;;;;;;;;;;;;5069714;28;5214;-49
2023/07/22 07:46:21;;;;;;;;;;;;;;;;;;5069223;28;4410;-49
2023/07/22 07:48:50;;;;;;;;;;;;;;;;;;5069091;28;4809;-48
2023/07/22 07:51:15;;;;;;;;;;;;;;;;;;5043448;28;4673;-47
2023/07/22 07:53:44;;;;;;;;;;;;;;;;;;5069535;28;1088;-47
2023/07/22 07:56:09;;;;;;;;;;;;;;;;;;5066345;28;5629;-49
2023/07/22 07:58:34;;;;;;;;;;;;;;;;;;5069011;28;4840;-49
2023/07/22 08:01:00;;;;;;;;;;;;;;;;;;5068763;28;5050;-48
2023/07/22 08:03:25;;;;;;;;;;;;;;;;;;5066626;28;5062;-50
2023/07/22 08:05:50;;;;;;;;;;;;;;;;;;5050428;28;4604;-48
2023/07/22 08:08:16;;;;;;;;;;;;;;;;;;5069292;28;1170;-49
2023/07/22 08:10:43;;;;;;;;;;;;;;;;;;5066194;28;4400;-51
2023/07/22 08:13:08;;;;;;;;;;;;;;;;;;5068658;28;5110;-49
2023/07/22 08:15:34;;;;;;;;;;;;;;;;;;5068441;28;4824;-48
2023/07/22 08:17:59;;;;;;;;;;;;;;;;;;5068593;28;5019;-51
2023/07/22 08:20:24;;;;;;;;;;;;;;;;;;5062084;28;1992;-49
2023/07/22 08:22:50;;;;;;;;;;;;;;;;;;5068075;28;5253;-49
2023/07/22 08:25:15;;;;;;;;;;;;;;;;;;5064793;28;4917;-50
2023/07/22 08:27:40;;;;;;;;;;;;;;;;;;5066237;28;5276;-47
2023/07/22 08:30:06;;;;;;;;;;;;;;;;;;5062245;28;4902;-50
2023/07/22 08:32:31;;;;;;;;;;;;;;;;;;5066290;28;4675;-50
2023/07/22 08:34:56;;;;;;;;;;;;;;;;;;5063973;28;5057;-48
2023/07/22 08:37:21;;;;;;;;;;;;;;;;;;5067902;28;5381;-49
2023/07/22 08:39:47;;;;;;;;;;;;;;;;;;5068081;28;4461;-52
2023/07/22 08:42:12;;;;;;;;;;;;;;;;;;5067257;28;4883;-50
2023/07/22 08:44:38;;;;;;;;;;;;;;;;;;5068649;28;1132;-48
2023/07/22 08:47:05;;;;;;;;;;;;;;;;;;5068077;28;5029;-47
2023/07/22 08:49:31;;;;;;;;;;;;;;;;;;5066216;28;4504;-48
2023/07/22 08:51:59;;;;;;;;;;;;;;;;;;5062552;28;5159;-50
2023/07/22 08:54:24;;;;;;;;;;;;;;;;;;5066246;28;5089;-51
2023/07/22 08:56:50;;;;;;;;;;;;;;;;;;5067969;28;1312;-49
2023/07/22 08:59:17;;;;;;;;;;;;;;;;;;5066403;28;4985;-50
2023/07/22 09:01:42;;;;;;;;;;;;;;;;;;5066321;28;5088;-50
2023/07/22 09:04:07;;;;;;;;;;;;;;;;;;5066242;28;5038;-51
2023/07/22 09:06:33;;;;;;;;;;;;;;;;;;5067350;28;4489;-48
2023/07/22 09:08:58;;;;;;;;;;;;;;;;;;5066748;28;4848;-49
2023/07/22 09:11:24;;;;;;;;;;;;;;;;;;5067628;28;1103;-47
2023/07/22 09:13:49;;;;;;;;;;;;;;;;;;5066650;28;4912;-48
2023/07/22 09:16:14;;;;;;;;;;;;;;;;;;5065726;28;5155;-48
2023/07/22 09:18:39;;;;;;;;;;;;;;;;;;5066147;28;5296;-51
2023/07/22 09:21:05;;;;;;;;;;;;;;;;;;5062080;28;5072;-47
2023/07/22 09:23:36;;;;;;;;;;;;;;;;;;5067976;28;1160;-49
2023/07/22 09:26:09;;;;;;;;;;;;;;;;;;5063444;28;5002;-50
2023/07/22 09:28:50;;;;;;;;;;;;;;;;;;5065657;28;5017;-49
2023/07/22 09:31:15;;;;;;;;;;;;;;;;;;5067103;28;4872;-47
2023/07/22 09:33:40;;;;;;;;;;;;;;;;;;5067068;28;4985;-53
2023/07/22 09:36:05;;;;;;;;;;;;;;;;;;5066736;28;5034;-51
2023/07/22 09:38:31;;;;;;;;;;;;;;;;;;5065986;28;1283;-49
2023/07/22 09:40:56;;;;;;;;;;;;;;;;;;5066666;28;4725;-49
2023/07/22 09:43:22;;;;;;;;;;;;;;;;;;5065334;28;5093;-50
2023/07/22 09:45:48;;;;;;;;;;;;;;;;;;5066969;28;5086;-48
2023/07/22 09:48:13;;;;;;;;;;;;;;;;;;5067062;28;4635;-47
2023/07/22 09:50:38;;;;;;;;;;;;;;;;;;5065838;28;1566;-47
2023/07/22 09:53:03;;;;;;;;;;;;;;;;;;5065135;28;4458;-48
2023/07/22 09:55:29;;;;;;;;;;;;;;;;;;5066975;28;4969;-48
2023/07/22 09:57:55;;;;;;;;;;;;;;;;;;5067125;28;4485;-46
2023/07/22 10:00:21;;;;;;;;;;;;;;;;;;5066893;28;4995;-47
2023/07/22 10:02:47;;;;;;;;;;;;;;;;;;5066927;28;1325;-48
2023/07/22 10:05:14;;;;;;;;;;;;;;;;;;5067125;28;4405;-51
2023/07/22 10:07:41;;;;;;;;;;;;;;;;;;5066659;28;5134;-47
2023/07/22 10:10:06;;;;;;;;;;;;;;;;;;5065869;28;5079;-50
2023/07/22 10:12:31;;;;;;;;;;;;;;;;;;5067017;28;4836;-51
2023/07/22 10:14:57;;;;;;;;;;;;;;;;;;5065184;28;5134;-51
2023/07/22 10:17:22;;;;;;;;;;;;;;;;;;5066229;28;1175;-50
2023/07/22 10:19:47;;;;;;;;;;;;;;;;;;5065383;28;4905;-48
2023/07/22 10:22:13;;;;;;;;;;;;;;;;;;5065713;28;4874;-48
2023/07/22 10:24:39;;;;;;;;;;;;;;;;;;5064074;28;4886;-47
2023/07/22 10:27:04;;;;;;;;;;;;;;;;;;5069436;28;5020;-50
2023/07/22 10:29:29;;;;;;;;;;;;;;;;;;5071180;28;1158;-48
2023/07/22 10:31:55;;;;;;;;;;;;;;;;;;5069212;28;4959;-49
2023/07/22 10:34:21;;;;;;;;;;;;;;;;;;5070667;28;4919;-48
2023/07/22 10:36:47;;;;;;;;;;;;;;;;;;5069244;28;5063;-50
2023/07/22 10:39:16;;;;;;;;;;;;;;;;;;5070232;28;4507;-51
2023/07/22 10:41:41;;;;;;;;;;;;;;;;;;5069410;28;1918;-48
2023/07/22 10:44:07;;;;;;;;;;;;;;;;;;5069294;28;4381;-47
2023/07/22 10:46:33;;;;;;;;;;;;;;;;;;5068480;28;4988;-49
2023/07/22 10:49:11;;;;;;;;;;;;;;;;;;5070652;28;4904;-49
2023/07/22 10:51:37;;;;;;;;;;;;;;;;;;5066343;28;5534;-51
2023/07/22 10:54:03;;;;;;;;;;;;;;;;;;5070216;28;5023;-49
2023/07/22 10:56:28;;;;;;;;;;;;;;;;;;5070288;28;1314;-47
2023/07/22 10:58:53;;;;;;;;;;;;;;;;;;5070579;28;4967;-49
2023/07/22 11:01:28;;;;;;;;;;;;;;;;;;5070191;28;4967;-46
2023/07/22 11:04:02;;;;;;;;;;;;;;;;;;5069494;28;5132;-50
2023/07/22 11:06:28;;;;;;;;;;;;;;;;;;5069663;28;5041;-52
2023/07/22 11:08:54;;;;;;;;;;;;;;;;;;5068607;28;4977;-49
2023/07/22 11:11:19;;;;;;;;;;;;;;;;;;5068644;28;2178;-50
2023/07/22 11:13:44;;;;;;;;;;;;;;;;;;5069764;28;4958;-50
2023/07/22 11:16:10;;;;;;;;;;;;;;;;;;5069712;28;4869;-50
2023/07/22 11:18:44;;;;;;;;;;;;;;;;;;5069640;28;5087;-47
2023/07/22 11:21:12;;;;;;;;;;;;;;;;;;5068545;28;4923;-49
2023/07/22 11:23:37;;;;;;;;;;;;;;;;;;5069986;28;1336;-50
2023/07/22 11:26:03;;;;;;;;;;;;;;;;;;5068099;28;4811;-48
2023/07/22 11:28:28;;;;;;;;;;;;;;;;;;5067144;28;5067;-52
2023/07/22 11:30:53;;;;;;;;;;;;;;;;;;5069253;28;5258;-51
2023/07/22 11:33:19;;;;;;;;;;;;;;;;;;5069083;28;5102;-50
2023/07/22 11:35:44;;;;;;;;;;;;;;;;;;5069868;28;1308;-47
2023/07/22 11:38:11;;;;;;;;;;;;;;;;;;5068479;28;4441;-51
2023/07/22 11:40:37;;;;;;;;;;;;;;;;;;5068955;28;4476;-51
2023/07/22 11:43:02;;;;;;;;;;;;;;;;;;5067849;28;4952;-50
2023/07/22 11:45:27;;;;;;;;;;;;;;;;;;5068849;28;5020;-48
2023/07/22 11:47:52;;;;;;;;;;;;;;;;;;5069278;28;4616;-50
2023/07/22 11:50:18;;;;;;;;;;;;;;;;;;5065066;28;1534;-48
2023/07/22 11:52:48;;;;;;;;;;;;;;;;;;5069064;28;4858;-48
2023/07/22 11:55:14;;;;;;;;;;;;;;;;;;5067555;28;4885;-49
2023/07/22 11:57:40;;;;;;;;;;;;;;;;;;5069339;28;5023;-47
2023/07/22 12:00:07;;;;;;;;;;;;;;;;;;5068593;28;5039;-48
2023/07/22 12:02:34;;;;;;;;;;;;;;;;;;5066688;28;1310;-46
2023/07/22 12:05:00;;;;;;;;;;;;;;;;;;5067647;28;4745;-48
2023/07/22 12:07:35;;;;;;;;;;;;;;;;;;5068326;28;4732;-50
2023/07/22 12:10:01;;;;;;;;;;;;;;;;;;5068365;28;4894;-48
2023/07/22 12:12:33;;;;;;;;;;;;;;;;;;5068428;28;4851;-49
2023/07/22 12:15:08;;;;;;;;;;;;;;;;;;5068704;28;4832;-47
2023/07/22 12:17:53;;;;;;;;;;;;;;;;;;5068947;28;1264;-47
2023/07/22 12:20:18;;;;;;;;;;;;;;;;;;5068144;28;5112;-47
2023/07/22 12:22:44;;;;;;;;;;;;;;;;;;5068562;28;5399;-49
2023/07/22 12:25:09;;;;;;;;;;;;;;;;;;5048352;28;4881;-51
2023/07/22 12:27:35;;;;;;;;;;;;;;;;;;5066402;28;5279;-50
2023/07/22 12:30:00;;;;;;;;;;;;;;;;;;5068382;28;5012;-50
2023/07/22 12:32:25;;;;;;;;;;;;;;;;;;5068628;28;4826;-47
2023/07/22 12:34:51;;;;;;;;;;;;;;;;;;5068000;28;4900;-50
2023/07/22 12:37:16;;;;;;;;;;;;;;;;;;5068513;28;4596;-48
2023/07/22 12:39:41;;;;;;;;;;;;;;;;;;5067580;28;4606;-51
2023/07/22 12:42:06;;;;;;;;;;;;;;;;;;5068426;28;5052;-50
2023/07/22 12:44:32;;;;;;;;;;;;;;;;;;5067984;28;1201;-49
2023/07/22 12:46:57;;;;;;;;;;;;;;;;;;5067303;28;4979;-51
2023/07/22 12:49:22;;;;;;;;;;;;;;;;;;5063807;28;4881;-50
2023/07/22 12:51:47;;;;;;;;;;;;;;;;;;5062397;28;4943;-49
2023/07/22 12:54:13;;;;;;;;;;;;;;;;;;5067344;28;5258;-48
2023/07/22 12:56:38;;;;;;;;;;;;;;;;;;5068437;28;1170;-50
2023/07/22 12:59:03;;;;;;;;;;;;;;;;;;5067806;28;5234;-48
2023/07/22 13:01:28;;;;;;;;;;;;;;;;;;5067550;28;4687;-46
2023/07/22 13:03:54;;;;;;;;;;;;;;;;;;5067721;28;4755;-47
2023/07/22 13:06:19;;;;;;;;;;;;;;;;;;5067551;28;5161;-47
2023/07/22 13:08:44;;;;;;;;;;;;;;;;;;5068174;28;1128;-48
2023/07/22 13:11:09;;;;;;;;;;;;;;;;;;5067004;28;4419;-47
2023/07/22 13:13:35;;;;;;;;;;;;;;;;;;5067595;28;5034;-47
2023/07/22 13:16:00;;;;;;;;;;;;;;;;;;5067104;28;4860;-49
2023/07/22 13:18:25;;;;;;;;;;;;;;;;;;5063664;28;4633;-49
2023/07/22 13:20:51;;;;;;;;;;;;;;;;;;5063695;28;4671;-47
2023/07/22 13:23:16;;;;;;;;;;;;;;;;;;5067424;28;1128;-48
2023/07/22 13:25:41;;;;;;;;;;;;;;;;;;5066043;28;4959;-48
2023/07/22 13:28:06;;;;;;;;;;;;;;;;;;5065208;28;5161;-47
2023/07/22 13:30:32;;;;;;;;;;;;;;;;;;5062115;28;5212;-47
2023/07/22 13:32:57;;;;;;;;;;;;;;;;;;5065398;28;4721;-50
2023/07/22 13:35:22;;;;;;;;;;;;;;;;;;5065979;28;1162;-48
2023/07/22 13:37:48;;;;;;;;;;;;;;;;;;5066849;28;4490;-48
2023/07/22 13:40:13;;;;;;;;;;;;;;;;;;5066344;28;5300;-47
2023/07/22 13:42:38;;;;;;;;;;;;;;;;;;5067851;28;5113;-50
2023/07/22 13:45:04;;;;;;;;;;;;;;;;;;5067417;28;4552;-51
2023/07/22 13:47:29;;;;;;;;;;;;;;;;;;5064512;28;1499;-51
2023/07/22 13:49:54;;;;;;;;;;;;;;;;;;5065968;28;5108;-49
2023/07/22 13:52:20;;;;;;;;;;;;;;;;;;5063069;28;4452;-51
2023/07/22 13:54:45;;;;;;;;;;;;;;;;;;5065095;28;4583;-50
2023/07/22 13:57:10;;;;;;;;;;;;;;;;;;5067097;28;4960;-47
2023/07/22 13:59:36;;;;;;;;;;;;;;;;;;5062879;28;2135;-46
2023/07/22 14:02:01;;;;;;;;;;;;;;;;;;5071143;28;4504;-49
2023/07/22 14:04:26;;;;;;;;;;;;;;;;;;5070709;28;5096;-50
2023/07/22 14:06:51;;;;;;;;;;;;;;;;;;5071156;28;4669;-50
2023/07/22 14:09:17;;;;;;;;;;;;;;;;;;5069830;28;4865;-52
2023/07/22 14:11:42;;;;;;;;;;;;;;;;;;5071774;28;1068;-51
2023/07/22 14:14:07;;;;;;;;;;;;;;;;;;5070956;28;5047;-50
2023/07/22 14:16:33;;;;;;;;;;;;;;;;;;5066016;28;5014;-52
2023/07/22 14:18:58;;;;;;;;;;;;;;;;;;5069400;28;5121;-47
2023/07/22 14:21:24;;;;;;;;;;;;;;;;;;5070757;28;5066;-50
2023/07/22 14:23:49;;;;;;;;;;;;;;;;;;5070530;28;1075;-51
2023/07/22 14:26:14;;;;;;;;;;;;;;;;;;5069128;28;4562;-50
2023/07/22 14:28:39;;;;;;;;;;;;;;;;;;5069008;28;5039;-49
2023/07/22 14:31:05;;;;;;;;;;;;;;;;;;5070818;28;4848;-49
2023/07/22 14:33:30;;;;;;;;;;;;;;;;;;5070005;28;5090;-48
2023/07/22 14:35:56;;;;;;;;;;;;;;;;;;5070636;28;4679;-48
2023/07/22 14:38:21;;;;;;;;;;;;;;;;;;5070539;28;1088;-47
2023/07/22 14:40:46;;;;;;;;;;;;;;;;;;5069100;28;4974;-48
2023/07/22 14:43:12;;;;;;;;;;;;;;;;;;5070800;28;4633;-47
2023/07/22 14:45:37;;;;;;;;;;;;;;;;;;5069254;28;5205;-49
2023/07/22 14:48:02;;;;;;;;;;;;;;;;;;5070127;28;4438;-51
2023/07/22 14:50:27;;;;;;;;;;;;;;;;;;5069505;28;1664;-50
2023/07/22 14:52:53;;;;;;;;;;;;;;;;;;5070002;28;5065;-51
2023/07/22 14:55:18;;;;;;;;;;;;;;;;;;5069789;28;4961;-50
2023/07/22 14:57:44;;;;;;;;;;;;;;;;;;5070292;28;4888;-51
2023/07/22 15:00:10;;;;;;;;;;;;;;;;;;5069930;28;5107;-50
2023/07/22 15:02:35;;;;;;;;;;;;;;;;;;5070559;28;1208;-50
2023/07/22 15:05:00;;;;;;;;;;;;;;;;;;5072471;28;5036;-48
2023/07/22 15:07:28;;;;;;;;;;;;;;;;;;5069570;28;4648;-48
2023/07/22 15:09:53;;;;;;;;;;;;;;;;;;5067127;28;4862;-47
2023/07/22 15:12:19;;;;;;;;;;;;;;;;;;5069932;28;4842;-47
2023/07/22 15:14:44;;;;;;;;;;;;;;;;;;5070475;28;1131;-51
2023/07/22 15:17:09;;;;;;;;;;;;;;;;;;5069481;28;5027;-51
2023/07/22 15:19:35;;;;;;;;;;;;;;;;;;5069715;28;4991;-50
2023/07/22 15:22:00;;;;;;;;;;;;;;;;;;5063564;28;4762;-51
2023/07/22 15:24:25;;;;;;;;;;;;;;;;;;5067179;28;4997;-47
2023/07/22 15:26:50;;;;;;;;;;;;;;;;;;5068186;28;4938;-50
2023/07/22 15:29:16;;;;;;;;;;;;;;;;;;5070063;28;1096;-51
2023/07/22 15:31:41;;;;;;;;;;;;;;;;;;5070756;28;5074;-52
2023/07/22 15:34:06;;;;;;;;;;;;;;;;;;5069667;28;4620;-49
2023/07/22 15:36:31;;;;;;;;;;;;;;;;;;5069244;28;4468;-49
2023/07/22 15:38:57;;;;;;;;;;;;;;;;;;5068912;28;4854;-51
2023/07/22 15:41:22;;;;;;;;;;;;;;;;;;5069679;28;1981;-50
2023/07/22 15:43:48;;;;;;;;;;;;;;;;;;5069401;28;4947;-50
2023/07/22 15:46:13;;;;;;;;;;;;;;;;;;5069997;28;4920;-50
2023/07/22 15:48:38;;;;;;;;;;;;;;;;;;5069464;28;5019;-51
2023/07/22 15:51:03;;;;;;;;;;;;;;;;;;5063431;28;5210;-49
2023/07/22 15:53:29;;;;;;;;;;;;;;;;;;5069035;28;1132;-48
2023/07/22 15:55:54;;;;;;;;;;;;;;;;;;5064166;28;4903;-50
2023/07/22 15:58:20;;;;;;;;;;;;;;;;;;5069106;28;4938;-49
2023/07/22 16:00:46;;;;;;;;;;;;;;;;;;5068949;28;4882;-48
2023/07/22 16:03:12;;;;;;;;;;;;;;;;;;5069097;28;5487;-48
2023/07/22 16:05:37;;;;;;;;;;;;;;;;;;5069854;28;1322;-51
2023/07/22 16:08:02;;;;;;;;;;;;;;;;;;5068965;28;4577;-50
2023/07/22 16:10:28;;;;;;;;;;;;;;;;;;5068414;28;5107;-49
2023/07/22 16:12:53;;;;;;;;;;;;;;;;;;5067390;28;5030;-49
2023/07/22 16:15:18;;;;;;;;;;;;;;;;;;5068632;28;5037;-48
2023/07/22 16:17:44;;;;;;;;;;;;;;;;;;5069616;28;1119;-48
2023/07/22 16:20:12;;;;;;;;;;;;;;;;;;5062422;28;5015;-50
2023/07/22 16:22:37;;;;;;;;;;;;;;;;;;5060054;28;5256;-47
2023/07/22 16:25:02;;;;;;;;;;;;;;;;;;5066917;28;5061;-50
2023/07/22 16:27:28;;;;;;;;;;;;;;;;;;5065722;28;5042;-48
2023/07/22 16:29:53;;;;;;;;;;;;;;;;;;5067891;28;4865;-48
2023/07/22 16:32:20;;;;;;;;;;;;;;;;;;5068946;28;4920;-49
2023/07/22 16:34:45;;;;;;;;;;;;;;;;;;5068492;28;5039;-49
2023/07/22 16:37:10;;;;;;;;;;;;;;;;;;5067867;28;4478;-51
2023/07/22 16:39:35;;;;;;;;;;;;;;;;;;5068166;28;4759;-48
2023/07/22 16:42:01;;;;;;;;;;;;;;;;;;5067811;28;5145;-50
2023/07/22 16:44:26;;;;;;;;;;;;;;;;;;5068729;28;1154;-47
2023/07/22 16:46:52;;;;;;;;;;;;;;;;;;5067187;28;4869;-49
2023/07/22 16:49:17;;;;;;;;;;;;;;;;;;5063452;28;4980;-53
2023/07/22 16:51:43;;;;;;;;;;;;;;;;;;5060360;28;5315;-48